Monroe Regional Airport
KMLU : now visible

Airfield :











YOU CAN JOIN US ON...

 
LOGIN :

Register | Disclaimer

   EN    FR    IT 

 









Legend :    VFR   Marginal VFR   IFR   Intensive IFR   Very Intensive IFR
Visi :
Ceiling :
>= 8 km
>= 3000ft
5 to 8 km
1000 to 3000 ft
1500m to 5 km
500 to 1000 ft
800 to 1500m
200 to 500 ft
< 800m
< 200 ft
Symbols :   Thunderstorms  Fog  Heavy snow  Heavy precipitations  Wind > 20 kt






- Airport Elevation : 79 ft
- IATA code : MLU


KMLU - Monroe Regional

CURRENT METAR :
  • 170353Z 14006KT 10SM OVC014 15/12 A3001 RMK AO2 SLP161 T01500122

EXPIRED METARs :
  • 170253Z VRB03KT 10SM OVC014 14/13 A3001 RMK AO2 SLP163 T01390128 58000
  • 170238Z 13003KT 10SM BKN015 13/12 A3002 RMK AO2 T01330122
  • 170203Z 00000KT 10SM SCT019 14/12 A3002 RMK AO2 T01390122
  • 170153Z 00000KT 10SM BKN019 14/12 A3002 RMK AO2 SLP165 T01440122
  • 170133Z 00000KT 10SM SCT013 OVC018 15/13 A3002 RMK AO2 T01500128
  • 170106Z 00000KT 10SM BKN013 OVC021 15/13 A3002 RMK AO2 T01500128

TAF KMLU
Valid from the 17 at 00:00 until the 18 at 00:00 UTC


162320Z 1700/1724 00000KT P6SM OVC016
FM170500 VRB04KT P6SM BKN007
FM170900 12002KT 1 1/2SM BR OVC004
FM171600 16008KT 4SM BR OVC003



MET'MAP, your aeronautical weather chart ! - Copyright ORBIFLY December 2007 - Disclaimer

ORBIFLY MET'MAP TEAM :

Programming & Development : Alexandra Zaïnal
Concept & original design : Baudouin d'Aumeries
Assistance for programming : Marc-Olivier Méhu
Technical & hardware support : Manuel Goepfert

Contact : metmap@orbifly.com




SOURCES & CREDITS :

   NOAA       Earth
Advisory